createdAt,value
2023-03-02T00:01:28.490Z,-0.50
2023-03-02T00:03:59.675Z,-0.55
2023-03-02T00:06:29.620Z,-0.61
2023-03-02T00:09:00.639Z,-0.71
2023-03-02T00:11:30.254Z,-0.80
2023-03-02T00:13:56.995Z,-0.81
2023-03-02T00:16:23.844Z,-0.83
2023-03-02T00:18:50.452Z,-0.88
2023-03-02T00:21:17.286Z,-0.92
2023-03-02T00:23:44.939Z,-0.88
2023-03-02T00:26:11.718Z,-0.90
2023-03-02T00:28:38.283Z,-0.87
2023-03-02T00:31:05.675Z,-0.82
2023-03-02T00:33:33.555Z,-0.80
2023-03-02T00:36:01.006Z,-0.79
2023-03-02T00:38:27.748Z,-0.80
2023-03-02T00:40:55.551Z,-0.84
2023-03-02T00:43:27.296Z,-0.87
2023-03-02T00:45:55.407Z,-0.93
2023-03-02T00:48:22.909Z,-0.97
2023-03-02T00:50:49.595Z,-1.07
2023-03-02T00:53:18.015Z,-1.17
2023-03-02T00:55:53.694Z,-1.20
2023-03-02T00:58:21.365Z,-1.30
2023-03-02T01:00:48.281Z,-1.35
2023-03-02T01:03:15.051Z,-1.38
2023-03-02T01:05:41.673Z,-1.38
2023-03-02T01:08:08.452Z,-1.38
2023-03-02T01:10:35.064Z,-1.34
2023-03-02T01:13:01.712Z,-1.30
2023-03-02T01:15:28.295Z,-1.32
2023-03-02T01:17:55.050Z,-1.29
2023-03-02T01:20:21.617Z,-1.36
2023-03-02T01:22:48.487Z,-1.41
2023-03-02T01:25:15.100Z,-1.42
2023-03-02T01:27:41.692Z,-1.42
2023-03-02T01:30:08.984Z,-1.45
2023-03-02T01:32:35.684Z,-1.48
2023-03-02T01:35:02.319Z,-1.50
2023-03-02T01:37:28.942Z,-1.48
2023-03-02T01:39:55.506Z,-1.49
2023-03-02T01:42:22.092Z,-1.47
2023-03-02T01:44:50.904Z,-1.44
2023-03-02T01:47:38.960Z,-1.49
2023-03-02T01:50:19.310Z,-1.51
2023-03-02T01:52:47.130Z,-1.56
2023-03-02T01:55:20.164Z,-1.67
2023-03-02T01:57:49.928Z,-1.66
2023-03-02T02:00:22.387Z,-1.68
2023-03-02T02:02:51.470Z,-1.79
2023-03-02T02:05:25.541Z,-1.90
2023-03-02T02:07:52.380Z,-1.94
2023-03-02T02:10:19.751Z,-1.92
2023-03-02T02:12:46.328Z,-1.93
2023-03-02T02:15:13.028Z,-2.06
2023-03-02T02:17:40.443Z,-2.05
2023-03-02T02:20:42.827Z,-2.05
2023-03-02T02:23:24.326Z,-2.09
2023-03-02T02:25:53.639Z,-2.09
2023-03-02T02:28:25.252Z,-2.07
2023-03-02T02:30:59.452Z,-2.14
2023-03-02T02:33:27.337Z,-2.18
2023-03-02T02:35:57.675Z,-2.19
2023-03-02T02:38:25.618Z,-2.23
2023-03-02T02:40:57.221Z,-2.28
2023-03-02T02:43:23.831Z,-2.25
2023-03-02T02:45:54.352Z,-2.25
2023-03-02T02:48:24.309Z,-2.23
2023-03-02T02:51:00.437Z,-2.22
2023-03-02T02:53:35.890Z,-2.23
2023-03-02T02:56:04.507Z,-2.26
2023-03-02T02:58:50.402Z,-2.33
2023-03-02T03:01:19.532Z,-2.34
2023-03-02T03:04:01.125Z,-2.38
2023-03-02T03:06:42.673Z,-2.36
2023-03-02T03:09:12.492Z,-2.32
2023-03-02T03:11:46.474Z,-2.41
2023-03-02T03:14:28.098Z,-2.48
2023-03-02T03:16:55.134Z,-2.52
2023-03-02T03:19:33.079Z,-2.57
2023-03-02T03:22:01.448Z,-2.62
2023-03-02T03:24:30.830Z,-2.65
2023-03-02T03:26:58.449Z,-2.65
2023-03-02T03:29:27.903Z,-2.68
2023-03-02T03:31:57.025Z,-2.71
2023-03-02T03:34:24.464Z,-2.73
2023-03-02T03:36:51.691Z,-2.68
2023-03-02T03:39:18.765Z,-2.65
2023-03-02T03:41:45.342Z,-2.72
2023-03-02T03:44:12.864Z,-2.71
2023-03-02T03:46:39.716Z,-2.72
2023-03-02T03:49:06.514Z,-2.85
2023-03-02T03:51:35.524Z,-2.88
2023-03-02T03:54:08.335Z,-2.89
2023-03-02T03:56:45.034Z,-2.90
2023-03-02T03:59:13.999Z,-2.97
2023-03-02T04:01:46.900Z,-3.00
2023-03-02T04:04:17.784Z,-3.01
2023-03-02T04:06:44.556Z,-3.07
2023-03-02T04:09:12.329Z,-3.18
2023-03-02T04:11:41.266Z,-3.19
2023-03-02T04:14:09.186Z,-3.17
2023-03-02T04:16:37.073Z,-3.16
2023-03-02T04:19:09.507Z,-3.19
2023-03-02T04:21:41.105Z,-3.21
2023-03-02T04:24:09.345Z,-3.18
2023-03-02T04:26:37.217Z,-3.17
2023-03-02T04:29:03.917Z,-3.17
2023-03-02T04:31:31.341Z,-3.17
2023-03-02T04:33:58.705Z,-3.14
2023-03-02T04:36:25.627Z,-3.16
2023-03-02T04:38:53.021Z,-3.26
2023-03-02T04:41:19.740Z,-3.31
2023-03-02T04:43:46.317Z,-3.30
2023-03-02T04:46:20.041Z,-3.32
2023-03-02T04:48:46.685Z,-3.30
2023-03-02T04:51:31.418Z,-3.31
2023-03-02T04:54:01.214Z,-3.37
2023-03-02T04:56:28.733Z,-3.43
2023-03-02T04:58:55.758Z,-3.42
2023-03-02T05:01:22.601Z,-3.43
2023-03-02T05:03:49.359Z,-3.45
2023-03-02T05:06:16.926Z,-3.45
2023-03-02T05:08:44.574Z,-3.41
2023-03-02T05:11:21.876Z,-3.35
2023-03-02T05:13:50.621Z,-3.31
2023-03-02T05:16:18.026Z,-3.26
2023-03-02T05:18:44.628Z,-3.21
2023-03-02T05:21:12.100Z,-3.16
2023-03-02T05:23:39.945Z,-3.13
2023-03-02T05:26:06.642Z,-3.08
2023-03-02T05:28:33.520Z,-3.05
2023-03-02T05:31:00.445Z,-3.01
2023-03-02T05:33:27.073Z,-2.98
2023-03-02T05:35:53.750Z,-2.94
2023-03-02T05:38:20.665Z,-2.90
2023-03-02T05:40:48.180Z,-2.91
2023-03-02T05:43:18.717Z,-2.90
2023-03-02T05:45:46.120Z,-3.04
2023-03-02T05:48:14.083Z,-3.07
2023-03-02T05:50:41.570Z,-3.05
2023-03-02T05:53:08.190Z,-3.00
2023-03-02T05:55:37.167Z,-2.93
2023-03-02T05:58:06.785Z,-2.89
2023-03-02T06:00:33.568Z,-2.87
2023-03-02T06:03:00.244Z,-2.85
2023-03-02T06:05:26.911Z,-2.78
2023-03-02T06:07:53.879Z,-2.72
2023-03-02T06:10:20.804Z,-2.64
2023-03-02T06:12:47.371Z,-2.59
2023-03-02T06:15:14.073Z,-2.54
2023-03-02T06:17:40.681Z,-2.48
2023-03-02T06:20:10.543Z,-2.46
2023-03-02T06:22:41.381Z,-2.40
2023-03-02T06:25:10.439Z,-2.31
2023-03-02T06:27:38.763Z,-2.21
2023-03-02T06:30:07.216Z,-2.13
2023-03-02T06:32:35.319Z,-2.05
2023-03-02T06:35:06.047Z,-1.94
2023-03-02T06:37:33.447Z,-1.85
2023-03-02T06:40:00.543Z,-1.75
2023-03-02T06:42:28.213Z,-1.67
2023-03-02T06:44:55.214Z,-1.55
2023-03-02T06:47:22.836Z,-1.44
2023-03-02T06:49:49.409Z,-1.31
2023-03-02T06:52:16.436Z,-1.20
2023-03-02T06:54:43.046Z,-1.08
2023-03-02T06:57:09.779Z,-0.95
2023-03-02T06:59:36.546Z,-0.81
2023-03-02T07:02:03.360Z,-0.66
2023-03-02T07:04:32.356Z,-0.49
2023-03-02T07:06:59.000Z,-0.33
2023-03-02T07:09:25.657Z,-0.16
2023-03-02T07:11:52.254Z,0.05
2023-03-02T07:14:18.792Z,0.23
2023-03-02T07:16:45.369Z,0.44
2023-03-02T07:19:15.201Z,0.66
2023-03-02T07:21:41.841Z,0.87
2023-03-02T07:24:08.588Z,1.15
2023-03-02T07:26:35.168Z,1.37
2023-03-02T07:29:01.908Z,1.64
2023-03-02T07:31:28.804Z,1.88
2023-03-02T07:33:55.516Z,2.12
2023-03-02T07:36:22.152Z,2.32
2023-03-02T07:38:48.844Z,2.53
2023-03-02T07:41:16.900Z,2.71
2023-03-02T07:43:43.944Z,2.92
2023-03-02T07:46:10.704Z,3.16
2023-03-02T07:48:37.498Z,3.35
2023-03-02T07:51:06.805Z,3.59
2023-03-02T07:53:33.557Z,3.80
2023-03-02T07:56:02.308Z,3.98
2023-03-02T07:58:28.997Z,4.16
2023-03-02T08:00:55.909Z,4.32
2023-03-02T08:03:22.569Z,4.48
2023-03-02T08:05:49.188Z,4.62
2023-03-02T08:08:15.821Z,4.77
2023-03-02T08:10:42.373Z,4.91
2023-03-02T08:13:09.002Z,5.05
2023-03-02T08:15:35.602Z,5.17
2023-03-02T08:18:02.170Z,5.31
2023-03-02T08:20:28.781Z,5.46
2023-03-02T08:22:55.335Z,5.64
2023-03-02T08:25:21.942Z,5.81
2023-03-02T08:27:48.613Z,5.94
2023-03-02T08:30:15.413Z,6.08
2023-03-02T08:32:42.033Z,6.23
2023-03-02T08:35:09.188Z,6.39
2023-03-02T08:37:35.828Z,6.54
2023-03-02T08:40:02.391Z,6.71
2023-03-02T08:42:28.934Z,6.87
2023-03-02T08:44:55.497Z,7.01
2023-03-02T08:47:22.062Z,7.16
2023-03-02T08:49:49.897Z,7.32
2023-03-02T08:52:16.476Z,7.49
2023-03-02T08:54:43.093Z,7.63
2023-03-02T08:57:12.950Z,7.78
2023-03-02T08:59:39.886Z,7.90
2023-03-02T09:02:07.456Z,8.05
2023-03-02T09:04:34.135Z,8.17
2023-03-02T09:07:00.747Z,8.31
2023-03-02T09:09:27.312Z,8.48
2023-03-02T09:11:53.894Z,8.59
2023-03-02T09:14:20.578Z,8.77
2023-03-02T09:16:47.415Z,8.94
2023-03-02T09:19:14.493Z,9.01
2023-03-02T09:21:41.149Z,9.16
2023-03-02T09:24:07.990Z,9.29
2023-03-02T09:26:35.009Z,9.43
2023-03-02T09:29:01.973Z,9.57
2023-03-02T09:31:30.335Z,9.60
2023-03-02T09:33:57.395Z,9.50
2023-03-02T09:36:26.160Z,9.59
2023-03-02T09:38:53.365Z,9.72
2023-03-02T09:41:19.942Z,9.94
2023-03-02T09:44:00.103Z,10.21
2023-03-02T09:47:00.170Z,10.43
2023-03-02T09:50:04.153Z,10.55
2023-03-02T09:52:32.439Z,10.77
2023-03-02T09:55:14.676Z,10.97
2023-03-02T09:57:42.081Z,11.19
2023-03-02T10:00:19.924Z,11.41
2023-03-02T10:02:56.212Z,11.65
2023-03-02T10:05:33.199Z,11.84
2023-03-02T10:08:00.361Z,11.87
2023-03-02T10:10:45.226Z,12.03
2023-03-02T10:13:30.697Z,12.26
2023-03-02T10:16:12.241Z,12.54
2023-03-02T10:18:45.759Z,12.82
2023-03-02T10:21:50.891Z,13.20
2023-03-02T10:24:38.816Z,13.59
2023-03-02T10:27:24.583Z,13.93
2023-03-02T10:29:59.894Z,14.22
2023-03-02T10:32:33.035Z,14.60
2023-03-02T10:35:02.402Z,15.02
2023-03-02T10:37:30.735Z,15.54
2023-03-02T10:39:57.515Z,16.17
2023-03-02T10:42:32.319Z,16.86
2023-03-02T10:45:32.918Z,17.57
2023-03-02T10:48:10.970Z,18.19
2023-03-02T10:50:38.165Z,18.64
2023-03-02T10:53:08.700Z,19.20
2023-03-02T10:55:35.453Z,19.68
2023-03-02T10:58:06.777Z,20.10
2023-03-02T11:00:35.337Z,20.62
2023-03-02T11:03:06.068Z,21.03
2023-03-02T11:05:40.051Z,21.54
2023-03-02T11:08:10.659Z,22.11
2023-03-02T11:10:39.507Z,22.24
2023-03-02T11:13:18.817Z,22.74
2023-03-02T11:15:52.079Z,23.36
2023-03-02T11:18:41.983Z,24.03
2023-03-02T11:21:16.234Z,24.40
2023-03-02T11:23:52.386Z,25.03
2023-03-02T11:26:28.800Z,25.51
2023-03-02T11:29:11.675Z,25.86
2023-03-02T11:31:47.077Z,26.19
2023-03-02T11:34:44.536Z,26.24
2023-03-02T11:37:27.929Z,26.86
2023-03-02T11:39:57.474Z,27.32
2023-03-02T11:42:31.560Z,27.45
2023-03-02T11:45:03.280Z,27.77
2023-03-02T11:47:32.914Z,27.83
2023-03-02T11:50:05.391Z,28.30
2023-03-02T11:52:37.722Z,28.35
2023-03-02T11:55:13.113Z,28.73
2023-03-02T11:57:48.652Z,28.81
2023-03-02T12:00:30.859Z,28.67
2023-03-02T12:03:01.900Z,28.70
2023-03-02T12:05:31.453Z,28.97
2023-03-02T12:08:17.676Z,29.08
2023-03-02T12:10:57.571Z,28.87
2023-03-02T12:13:43.314Z,29.21
2023-03-02T12:16:22.028Z,28.84
2023-03-02T12:18:50.765Z,28.94
2023-03-02T12:21:21.186Z,29.23
2023-03-02T12:23:47.688Z,29.37
2023-03-02T12:26:20.423Z,29.11
2023-03-02T12:29:03.765Z,29.70
2023-03-02T12:31:51.678Z,29.70
2023-03-02T12:34:24.460Z,30.04
2023-03-02T12:36:57.999Z,30.34
2023-03-02T12:39:27.395Z,30.45
2023-03-02T12:42:39.773Z,30.38
2023-03-02T12:45:36.507Z,29.96
2023-03-02T12:48:19.337Z,29.38
2023-03-02T12:50:48.166Z,29.98
2023-03-02T12:53:19.492Z,29.85
2023-03-02T12:55:46.682Z,29.38
2023-03-02T12:58:23.662Z,29.66
2023-03-02T13:01:00.197Z,29.15
2023-03-02T13:03:30.328Z,29.25
2023-03-02T13:06:04.575Z,29.42
2023-03-02T13:08:32.320Z,29.85
2023-03-02T13:11:01.899Z,29.46
2023-03-02T13:13:39.848Z,29.61
2023-03-02T13:16:28.312Z,29.83
2023-03-02T13:18:58.084Z,30.01
2023-03-02T13:21:31.412Z,29.46
2023-03-02T13:23:58.238Z,29.09
2023-03-02T13:26:35.994Z,29.21
2023-03-02T13:29:06.181Z,29.24
2023-03-02T13:31:35.177Z,29.09
2023-03-02T13:34:01.961Z,28.81
2023-03-02T13:36:35.388Z,28.37
2023-03-02T13:39:06.994Z,28.34
2023-03-02T13:41:36.613Z,28.40
2023-03-02T13:44:19.916Z,28.31
2023-03-02T13:46:47.134Z,28.07
2023-03-02T13:49:13.743Z,28.75
2023-03-02T13:51:43.515Z,29.42
2023-03-02T13:54:22.899Z,29.47
2023-03-02T13:56:51.248Z,29.20
2023-03-02T13:59:19.936Z,29.02
2023-03-02T14:01:46.889Z,28.57
2023-03-02T14:04:17.640Z,28.47
2023-03-02T14:06:45.765Z,28.39
2023-03-02T14:09:13.205Z,28.64
2023-03-02T14:11:45.825Z,28.44
2023-03-02T14:14:16.422Z,28.07
2023-03-02T14:16:43.159Z,28.09
2023-03-02T14:19:16.305Z,28.15
2023-03-02T14:21:43.488Z,27.72
2023-03-02T14:24:10.560Z,27.57
2023-03-02T14:26:57.934Z,27.55
2023-03-02T14:29:33.451Z,27.73
2023-03-02T14:32:06.679Z,27.81
2023-03-02T14:34:36.103Z,27.72
2023-03-02T14:37:06.461Z,27.53
2023-03-02T14:39:38.231Z,27.70
2023-03-02T14:42:06.356Z,27.82
2023-03-02T14:44:33.040Z,27.27
2023-03-02T14:46:59.661Z,26.87
2023-03-02T14:49:26.251Z,26.53
2023-03-02T14:52:08.669Z,26.52
2023-03-02T14:54:41.455Z,26.46
2023-03-02T14:57:22.085Z,26.34
2023-03-02T14:59:49.355Z,26.20
2023-03-02T15:02:25.295Z,25.92
2023-03-02T15:04:56.160Z,25.73
2023-03-02T15:07:25.171Z,25.45
2023-03-02T15:09:51.750Z,25.24
2023-03-02T15:12:18.324Z,24.69
2023-03-02T15:14:44.911Z,23.50
2023-03-02T15:17:11.502Z,23.27
2023-03-02T15:19:38.061Z,23.00
2023-03-02T15:22:05.045Z,22.68
2023-03-02T15:24:33.380Z,22.16
2023-03-02T15:27:00.627Z,21.28
2023-03-02T15:29:27.304Z,21.19
2023-03-02T15:31:53.948Z,20.83
2023-03-02T15:34:20.640Z,20.79
2023-03-02T15:36:47.226Z,20.59
2023-03-02T15:39:14.783Z,20.19
2023-03-02T15:41:44.286Z,19.90
2023-03-02T15:44:22.096Z,19.82
2023-03-02T15:46:50.232Z,19.93
2023-03-02T15:49:17.171Z,19.86
2023-03-02T15:51:45.924Z,19.41
2023-03-02T15:54:12.647Z,18.79
2023-03-02T15:56:44.313Z,18.53
2023-03-02T15:59:12.113Z,18.20
2023-03-02T16:01:39.074Z,17.81
2023-03-02T16:04:05.723Z,17.24
2023-03-02T16:06:32.304Z,17.10
2023-03-02T16:08:58.850Z,17.04
2023-03-02T16:11:25.418Z,16.69
2023-03-02T16:13:52.465Z,16.42
2023-03-02T16:16:20.555Z,16.23
2023-03-02T16:18:55.311Z,15.92
2023-03-02T16:21:22.302Z,15.58
2023-03-02T16:23:49.441Z,15.25
2023-03-02T16:26:21.784Z,15.11
2023-03-02T16:28:48.948Z,14.94
2023-03-02T16:31:19.001Z,14.62
2023-03-02T16:33:46.761Z,14.29
2023-03-02T16:36:14.611Z,14.12
2023-03-02T16:38:41.558Z,14.05
2023-03-02T16:41:19.836Z,14.06
2023-03-02T16:43:54.599Z,13.98
2023-03-02T16:46:23.224Z,13.71
2023-03-02T16:48:49.964Z,13.34
2023-03-02T16:51:18.173Z,12.99
2023-03-02T16:53:45.457Z,12.80
2023-03-02T16:56:13.196Z,12.38
2023-03-02T16:58:41.423Z,12.17
2023-03-02T17:01:11.666Z,11.92
2023-03-02T17:03:38.362Z,11.57
2023-03-02T17:06:06.096Z,11.32
2023-03-02T17:08:32.672Z,11.16
2023-03-02T17:10:59.294Z,11.07
2023-03-02T17:13:25.923Z,10.96
2023-03-02T17:15:52.942Z,10.78
2023-03-02T17:18:19.674Z,10.61
2023-03-02T17:20:46.578Z,10.51
2023-03-02T17:23:14.205Z,10.41
2023-03-02T17:25:40.819Z,10.26
2023-03-02T17:28:07.448Z,10.12
2023-03-02T17:30:34.465Z,10.02
2023-03-02T17:33:01.292Z,9.88
2023-03-02T17:35:27.872Z,9.83
2023-03-02T17:37:54.659Z,9.78
2023-03-02T17:40:21.373Z,9.38
2023-03-02T17:42:48.026Z,9.12
2023-03-02T17:45:18.140Z,8.96
2023-03-02T17:47:44.875Z,8.99
2023-03-02T17:50:13.196Z,8.85
2023-03-02T17:52:39.854Z,8.75
2023-03-02T17:55:07.429Z,8.59
2023-03-02T17:57:34.079Z,8.49
2023-03-02T18:00:00.708Z,8.31
2023-03-02T18:02:27.265Z,8.19
2023-03-02T18:04:53.840Z,8.07
2023-03-02T18:07:20.368Z,7.95
2023-03-02T18:09:47.050Z,7.95
2023-03-02T18:12:13.576Z,7.98
2023-03-02T18:14:40.208Z,8.03
2023-03-02T18:17:08.792Z,8.04
2023-03-02T18:19:36.944Z,8.08
2023-03-02T18:22:04.333Z,8.03
2023-03-02T18:24:30.957Z,7.99
2023-03-02T18:26:57.613Z,7.88
2023-03-02T18:29:24.293Z,7.88
2023-03-02T18:31:53.257Z,7.84
2023-03-02T18:34:20.501Z,7.82
2023-03-02T18:36:47.530Z,7.69
2023-03-02T18:39:14.240Z,7.59
2023-03-02T18:41:41.275Z,7.51
2023-03-02T18:44:07.969Z,7.50
2023-03-02T18:46:34.614Z,7.41
2023-03-02T18:49:01.275Z,7.30
2023-03-02T18:51:28.100Z,7.18
2023-03-02T18:53:55.820Z,7.00
2023-03-02T18:56:23.077Z,6.87
2023-03-02T18:58:51.434Z,6.89
2023-03-02T19:01:18.805Z,6.86
2023-03-02T19:03:46.030Z,6.78
2023-03-02T19:06:14.140Z,6.69
2023-03-02T19:08:41.016Z,6.57
2023-03-02T19:11:09.118Z,6.47
2023-03-02T19:13:35.766Z,6.45
2023-03-02T19:16:03.024Z,6.45
2023-03-02T19:18:30.418Z,6.37
2023-03-02T19:20:57.754Z,6.28
2023-03-02T19:23:24.896Z,6.17
2023-03-02T19:25:51.896Z,6.11
2023-03-02T19:28:18.626Z,6.06
2023-03-02T19:30:45.235Z,5.99
2023-03-02T19:33:11.830Z,5.88
2023-03-02T19:35:39.050Z,5.83
2023-03-02T19:38:06.846Z,5.90
2023-03-02T19:40:34.581Z,5.88
2023-03-02T19:43:02.232Z,5.78
2023-03-02T19:45:32.552Z,5.66
2023-03-02T19:48:01.588Z,5.60
2023-03-02T19:50:29.620Z,5.56
2023-03-02T19:52:56.711Z,5.49
2023-03-02T19:55:24.409Z,5.44
2023-03-02T19:57:56.486Z,5.38
2023-03-02T20:00:24.023Z,5.35
2023-03-02T20:02:50.891Z,5.28
2023-03-02T20:05:18.071Z,5.20
2023-03-02T20:07:45.095Z,5.12
2023-03-02T20:10:22.451Z,5.08
2023-03-02T20:12:49.014Z,5.04
2023-03-02T20:15:16.733Z,4.97
2023-03-02T20:17:43.533Z,4.88
2023-03-02T20:20:11.912Z,4.84
2023-03-02T20:22:38.435Z,4.77
2023-03-02T20:25:05.565Z,4.72
2023-03-02T20:27:32.261Z,4.65
2023-03-02T20:29:59.312Z,4.62
2023-03-02T20:32:25.941Z,4.62
2023-03-02T20:34:52.568Z,4.57
2023-03-02T20:37:19.180Z,4.55
2023-03-02T20:39:48.022Z,4.41
2023-03-02T20:42:14.648Z,4.39
2023-03-02T20:44:41.404Z,4.34
2023-03-02T20:47:11.401Z,4.31
2023-03-02T20:49:38.153Z,4.26
2023-03-02T20:52:05.503Z,4.22
2023-03-02T20:54:36.477Z,4.06
2023-03-02T20:57:05.368Z,3.99
2023-03-02T20:59:32.695Z,3.94
2023-03-02T21:01:59.632Z,3.91
2023-03-02T21:04:29.076Z,3.86
2023-03-02T21:06:56.227Z,3.79
2023-03-02T21:09:22.805Z,3.69
2023-03-02T21:11:49.407Z,3.61
2023-03-02T21:14:16.192Z,3.56
2023-03-02T21:16:44.291Z,3.52
2023-03-02T21:19:16.011Z,3.42
2023-03-02T21:21:42.895Z,3.33
2023-03-02T21:24:18.089Z,3.31
2023-03-02T21:26:46.296Z,3.24
2023-03-02T21:29:13.636Z,3.21
2023-03-02T21:31:42.307Z,3.09
2023-03-02T21:34:08.910Z,3.06
2023-03-02T21:36:35.727Z,3.04
2023-03-02T21:39:05.037Z,3.01
2023-03-02T21:41:31.666Z,2.99
2023-03-02T21:43:58.540Z,2.98
2023-03-02T21:46:25.379Z,2.97
2023-03-02T21:48:52.150Z,2.97
2023-03-02T21:51:19.069Z,2.93
2023-03-02T21:53:46.165Z,2.92
2023-03-02T21:56:23.817Z,2.94
2023-03-02T21:58:52.762Z,2.94
2023-03-02T22:01:19.740Z,2.93
2023-03-02T22:03:46.606Z,2.92
2023-03-02T22:06:19.045Z,2.91
2023-03-02T22:08:45.877Z,2.90
2023-03-02T22:11:22.823Z,2.89
2023-03-02T22:13:52.432Z,2.87
2023-03-02T22:16:27.452Z,2.85
2023-03-02T22:19:01.000Z,2.82
2023-03-02T22:21:37.497Z,2.80
2023-03-02T22:24:10.580Z,2.78
2023-03-02T22:26:52.401Z,2.75
2023-03-02T22:29:27.907Z,2.73
2023-03-02T22:31:57.271Z,2.73
2023-03-02T22:34:29.832Z,2.73
2023-03-02T22:37:09.611Z,2.74
2023-03-02T22:39:36.461Z,2.74
2023-03-02T22:42:19.219Z,2.73
2023-03-02T22:45:15.336Z,2.72
2023-03-02T22:47:43.436Z,2.71
2023-03-02T22:50:24.394Z,2.69
2023-03-02T22:52:52.734Z,2.66
2023-03-02T22:55:36.895Z,2.66
2023-03-02T22:58:22.222Z,2.62
2023-03-02T23:00:49.951Z,2.59
2023-03-02T23:03:22.377Z,2.49
2023-03-02T23:05:52.904Z,2.30
2023-03-02T23:08:28.958Z,2.19
2023-03-02T23:10:59.414Z,2.09
2023-03-02T23:13:36.957Z,1.99
2023-03-02T23:16:24.586Z,1.84
2023-03-02T23:18:53.966Z,1.78
2023-03-02T23:21:28.228Z,1.70
2023-03-02T23:23:55.317Z,1.66
2023-03-02T23:26:21.925Z,1.60
2023-03-02T23:28:50.060Z,1.53
2023-03-02T23:31:18.480Z,1.47
2023-03-02T23:33:45.235Z,1.40
2023-03-02T23:36:11.933Z,1.25
2023-03-02T23:38:39.576Z,1.19
2023-03-02T23:41:07.484Z,1.10
2023-03-02T23:43:35.333Z,1.09
2023-03-02T23:46:02.007Z,1.04
2023-03-02T23:48:28.656Z,1.05
2023-03-02T23:50:55.210Z,1.05
2023-03-02T23:53:24.070Z,1.07
2023-03-02T23:55:53.518Z,1.05
2023-03-02T23:58:20.437Z,0.96
